Terminal Aerodrome Forecast
Issued by NWS

Home | Current Version | Previous Version | Text Only | Print | Product List | Glossary On
Versions: 1 2 3 4 5 6 7 8 9 10 11 12 13
000
FTUS45 KABQ 310539
TAFTCC
TAF
KTCC 310539Z 3106/0106 21008KT P6SM SKC
     FM311600 22011G18KT P6SM SKC
     FM010400 20009KT P6SM FEW150 SCT250=

USA.gov is the U.S. government's official web portal to all federal, state and local government web resources and services.